Time;durP1;ratioP1;P1;durP2;ratioP2;P2;SDS_P1;SDS_P2;PMS_P1;PMS_P2;Temp;Humidity;BMP_temperature;BMP_pressure;BME280_temperature;BME280_humidity;BME280_pressure;Samples;Min_cycle;Max_cycle;Signal;HPM_P1;HPM_P2
2023/04/07 00:01:17;;;;;;;6.83;6.13;;;6.20;99.90;;;;;;477713;249;29292;-75
2023/04/07 00:03:18;;;;;;;9.63;7.03;;;6.10;99.90;;;;;;477722;249;28388;-74
2023/04/07 00:05:19;;;;;;;8.27;5.97;;;6.20;99.90;;;;;;477629;249;27745;-74
2023/04/07 00:07:20;;;;;;;7.87;7.07;;;6.20;99.90;;;;;;477669;249;27573;-74
2023/04/07 00:09:22;;;;;;;8.30;6.47;;;6.10;99.90;;;;;;477701;249;28081;-74
2023/04/07 00:11:23;;;;;;;9.03;6.70;;;6.20;99.90;;;;;;477701;249;28078;-74
2023/04/07 00:13:25;;;;;;;10.87;7.50;;;6.10;99.90;;;;;;477671;249;28203;-75
2023/04/07 00:15:25;;;;;;;9.10;7.00;;;6.10;99.90;;;;;;477598;249;28633;-75
2023/04/07 00:17:27;;;;;;;8.13;6.43;;;6.10;99.90;;;;;;477641;249;27893;-74
2023/04/07 00:19:28;;;;;;;6.18;5.57;;;6.10;99.90;;;;;;477711;249;27801;-75
2023/04/07 00:21:29;;;;;;;9.02;7.40;;;6.10;99.90;;;;;;477690;249;27406;-75
2023/04/07 00:23:30;;;;;;;7.50;6.50;;;6.10;99.90;;;;;;477555;249;28057;-75
2023/04/07 00:25:32;;;;;;;6.37;5.57;;;6.10;99.90;;;;;;477607;249;28358;-74
2023/04/07 00:27:33;;;;;;;6.73;5.70;;;6.10;99.90;;;;;;477648;249;28857;-74
2023/04/07 00:29:34;;;;;;;6.82;6.12;;;6.00;99.90;;;;;;477656;249;29469;-74
2023/04/07 00:31:35;;;;;;;7.28;6.22;;;6.00;99.90;;;;;;477715;249;27390;-75
2023/04/07 00:33:37;;;;;;;7.93;6.65;;;6.00;99.90;;;;;;477693;249;27511;-75
2023/04/07 00:35:38;;;;;;;7.57;5.67;;;6.00;99.90;;;;;;477611;249;27505;-75
2023/04/07 00:37:39;;;;;;;6.43;5.67;;;5.90;99.90;;;;;;477671;249;28795;-74
2023/04/07 00:39:40;;;;;;;7.57;5.97;;;6.00;99.90;;;;;;477643;249;28854;-74
2023/04/07 00:41:42;;;;;;;7.40;6.53;;;6.00;99.90;;;;;;477657;249;27633;-76
2023/04/07 00:43:43;;;;;;;6.30;5.40;;;6.00;99.90;;;;;;477690;249;28720;-75
2023/04/07 00:45:45;;;;;;;7.87;6.03;;;6.00;99.90;;;;;;477604;249;28400;-75
2023/04/07 00:47:45;;;;;;;6.43;5.83;;;6.00;99.90;;;;;;477672;249;28396;-75
2023/04/07 00:49:47;;;;;;;12.00;6.40;;;5.90;99.90;;;;;;477650;249;29893;-75
2023/04/07 00:51:48;;;;;;;8.60;6.10;;;5.90;99.90;;;;;;477685;249;28570;-75
2023/04/07 00:53:49;;;;;;;9.93;5.90;;;5.80;99.90;;;;;;477704;249;27818;-75
2023/04/07 00:55:50;;;;;;;9.83;6.53;;;5.80;99.90;;;;;;477624;249;28050;-75
2023/04/07 00:57:52;;;;;;;6.40;5.80;;;5.80;99.90;;;;;;477627;249;28858;-75
2023/04/07 00:59:53;;;;;;;9.63;7.45;;;5.80;99.90;;;;;;477649;249;27478;-75
2023/04/07 01:01:55;;;;;;;6.70;5.97;;;5.70;99.90;;;;;;477661;249;27395;-75
2023/04/07 01:03:55;;;;;;;10.07;7.60;;;5.70;99.90;;;;;;477654;249;28812;-75
2023/04/07 01:05:57;;;;;;;8.75;6.95;;;5.70;99.90;;;;;;477606;249;28822;-75
2023/04/07 01:07:58;;;;;;;9.30;6.60;;;5.70;99.90;;;;;;477641;249;27929;-75
2023/04/07 01:09:59;;;;;;;8.82;7.35;;;5.70;99.90;;;;;;477681;249;27989;-76
2023/04/07 01:12:00;;;;;;;8.13;6.10;;;5.70;99.90;;;;;;477684;249;27481;-75
2023/04/07 01:14:02;;;;;;;9.32;7.25;;;5.60;99.90;;;;;;477680;249;27534;-75
2023/04/07 01:16:03;;;;;;;7.57;6.82;;;5.50;99.90;;;;;;477608;249;27486;-75
2023/04/07 01:18:05;;;;;;;6.93;6.23;;;5.50;99.90;;;;;;477682;249;27460;-76
2023/04/07 01:20:07;;;;;;;7.77;6.73;;;5.40;99.90;;;;;;477701;249;28777;-75
2023/04/07 01:22:07;;;;;;;7.80;6.40;;;5.40;99.90;;;;;;477618;249;27983;-75
2023/04/07 01:24:08;;;;;;;6.78;6.00;;;5.30;99.90;;;;;;477653;249;27977;-75
2023/04/07 01:26:09;;;;;;;9.95;7.57;;;5.30;99.90;;;;;;477637;249;27394;-75
2023/04/07 01:28:10;;;;;;;8.37;7.10;;;5.20;99.90;;;;;;477691;249;27513;-75
2023/04/07 01:30:12;;;;;;;10.55;7.10;;;5.20;99.90;;;;;;477694;249;28798;-75
2023/04/07 01:32:13;;;;;;;8.55;6.87;;;5.10;99.90;;;;;;477668;249;27410;-75
2023/04/07 01:34:14;;;;;;;6.55;5.85;;;5.10;99.90;;;;;;477586;249;27508;-75
2023/04/07 01:36:16;;;;;;;7.57;6.10;;;5.00;99.90;;;;;;477590;249;28582;-75
2023/04/07 01:38:17;;;;;;;9.23;7.05;;;5.00;99.90;;;;;;477652;249;27872;-75
2023/04/07 01:40:18;;;;;;;9.13;6.30;;;5.00;99.90;;;;;;477672;249;27452;-75
2023/04/07 01:42:19;;;;;;;9.73;7.18;;;5.00;99.90;;;;;;477646;249;27493;-75
2023/04/07 01:44:21;;;;;;;11.00;7.45;;;4.90;99.90;;;;;;477555;249;27442;-75
2023/04/07 01:46:22;;;;;;;7.12;6.22;;;4.90;99.90;;;;;;477658;249;27464;-75
2023/04/07 01:48:23;;;;;;;7.55;6.75;;;4.90;99.90;;;;;;477672;249;27414;-75
2023/04/07 01:50:24;;;;;;;12.90;8.50;;;4.90;99.90;;;;;;477679;249;27909;-75
2023/04/07 01:52:26;;;;;;;8.40;7.47;;;4.90;99.90;;;;;;477644;249;27385;-74
2023/04/07 01:54:27;;;;;;;8.38;6.53;;;4.90;99.90;;;;;;477562;249;27437;-75
2023/04/07 01:56:28;;;;;;;9.68;7.10;;;5.00;99.90;;;;;;477668;249;27475;-73
2023/04/07 01:58:29;;;;;;;10.93;7.65;;;5.00;99.90;;;;;;477662;249;27395;-72
2023/04/07 02:00:31;;;;;;;9.68;6.95;;;5.00;99.90;;;;;;477667;249;27556;-72
2023/04/07 02:02:32;;;;;;;14.20;9.00;;;5.00;99.90;;;;;;477631;249;27869;-72
2023/04/07 02:04:33;;;;;;;9.48;7.60;;;5.00;99.90;;;;;;477580;249;28026;-75
2023/04/07 02:06:34;;;;;;;13.43;8.63;;;5.10;99.90;;;;;;477682;249;27508;-75
2023/04/07 02:08:36;;;;;;;7.95;6.25;;;5.10;99.90;;;;;;477660;249;27402;-75
2023/04/07 02:10:37;;;;;;;7.80;7.00;;;5.00;99.90;;;;;;477626;249;27543;-75
2023/04/07 02:12:38;;;;;;;7.32;6.62;;;5.00;99.90;;;;;;477645;249;27437;-75
2023/04/07 02:14:39;;;;;;;7.97;6.60;;;5.00;99.90;;;;;;477605;249;28047;-75
2023/04/07 02:16:41;;;;;;;8.13;6.68;;;4.90;99.90;;;;;;477654;249;28007;-76
2023/04/07 02:18:42;;;;;;;8.45;6.75;;;4.90;99.90;;;;;;477656;249;27389;-75
2023/04/07 02:20:43;;;;;;;8.27;6.95;;;4.90;99.90;;;;;;477640;249;27445;-75
2023/04/07 02:22:44;;;;;;;10.73;7.68;;;4.80;99.90;;;;;;477620;249;27394;-75
2023/04/07 02:24:46;;;;;;;8.70;6.10;;;4.80;99.90;;;;;;477606;249;27434;-75
2023/04/07 02:26:47;;;;;;;8.00;6.87;;;4.80;99.90;;;;;;477665;249;27506;-75
2023/04/07 02:28:48;;;;;;;9.60;6.53;;;4.70;99.90;;;;;;477641;249;27444;-75
2023/04/07 02:30:50;;;;;;;9.18;6.97;;;4.70;99.90;;;;;;477620;249;27517;-75
2023/04/07 02:32:51;;;;;;;8.82;7.93;;;4.60;99.90;;;;;;477641;249;27534;-75
2023/04/07 02:34:52;;;;;;;7.75;6.60;;;4.70;99.90;;;;;;477604;249;28027;-75
2023/04/07 02:36:53;;;;;;;15.00;9.20;;;4.60;99.90;;;;;;477662;249;28015;-75
2023/04/07 02:38:55;;;;;;;14.55;10.02;;;4.60;99.90;;;;;;477616;249;27393;-75
2023/04/07 02:40:57;;;;;;;12.15;9.27;;;4.60;99.90;;;;;;477648;249;27534;-75
2023/04/07 02:42:57;;;;;;;13.65;9.45;;;4.60;99.90;;;;;;477579;249;27497;-74
2023/04/07 02:44:58;;;;;;;8.50;7.22;;;4.50;99.90;;;;;;477614;249;27553;-75
2023/04/07 02:47:00;;;;;;;9.73;7.68;;;4.50;99.90;;;;;;477660;249;27964;-78
2023/04/07 02:49:01;;;;;;;10.75;8.55;;;4.40;99.90;;;;;;477658;249;27866;-73
2023/04/07 02:51:02;;;;;;;8.32;6.78;;;4.40;99.90;;;;;;477649;249;27993;-72
2023/04/07 02:53:03;;;;;;;14.52;8.40;;;4.40;99.90;;;;;;477686;249;27442;-72
2023/04/07 02:55:05;;;;;;;10.35;7.40;;;4.30;99.90;;;;;;477618;249;27406;-72
2023/04/07 02:57:06;;;;;;;10.65;7.50;;;4.40;99.90;;;;;;477665;249;27450;-72
2023/04/07 02:59:07;;;;;;;10.35;7.53;;;4.30;99.90;;;;;;477673;249;27394;-72
2023/04/07 03:01:08;;;;;;;8.73;7.12;;;4.30;99.90;;;;;;477656;249;27444;-72
2023/04/07 03:03:10;;;;;;;8.35;7.32;;;4.30;99.90;;;;;;477690;249;27941;-72
2023/04/07 03:05:11;;;;;;;13.07;6.93;;;4.20;99.90;;;;;;477624;249;27378;-72
2023/04/07 03:07:12;;;;;;;8.73;7.07;;;4.30;99.90;;;;;;477674;249;27440;-72
2023/04/07 03:09:13;;;;;;;8.75;6.80;;;4.20;99.90;;;;;;477673;249;27425;-72
2023/04/07 03:11:15;;;;;;;9.57;7.28;;;4.20;99.90;;;;;;477685;249;27457;-72
2023/04/07 03:13:18;;;;;;;9.10;7.57;;;4.20;99.90;;;;;;477706;249;27514;-72
2023/04/07 03:15:17;;;;;;;9.57;7.97;;;4.20;99.90;;;;;;477565;249;27394;-72
2023/04/07 03:17:18;;;;;;;10.07;7.45;;;4.10;99.90;;;;;;477652;249;27521;-72
2023/04/07 03:19:20;;;;;;;9.85;7.97;;;4.10;99.90;;;;;;477695;249;27960;-72
2023/04/07 03:21:21;;;;;;;7.97;6.93;;;4.10;99.90;;;;;;477674;249;27908;-72
2023/04/07 03:23:22;;;;;;;8.38;6.75;;;4.10;99.90;;;;;;477651;249;27520;-73
2023/04/07 03:25:24;;;;;;;7.95;6.93;;;4.10;99.90;;;;;;477595;249;27480;-72
2023/04/07 03:27:25;;;;;;;10.60;7.50;;;4.00;99.90;;;;;;477661;249;27422;-72
2023/04/07 03:29:26;;;;;;;13.65;9.52;;;4.00;99.90;;;;;;477654;249;27484;-75
2023/04/07 03:31:29;;;;;;;10.55;8.70;;;4.00;99.90;;;;;;477684;249;27520;-74
2023/04/07 03:33:29;;;;;;;12.35;8.93;;;4.00;99.90;;;;;;477591;249;27528;-75
2023/04/07 03:35:30;;;;;;;11.75;8.95;;;4.00;99.90;;;;;;477606;249;27999;-75
2023/04/07 03:37:31;;;;;;;10.57;7.10;;;4.10;99.90;;;;;;477689;249;27994;-75
2023/04/07 03:39:36;;;;;;;9.30;7.65;;;4.10;99.90;;;;;;477643;249;27449;-75
2023/04/07 03:41:34;;;;;;;7.85;6.57;;;4.10;99.90;;;;;;477421;249;27436;-75
2023/04/07 03:43:35;;;;;;;10.55;7.97;;;4.20;99.90;;;;;;477662;249;27497;-75
2023/04/07 03:45:36;;;;;;;10.82;8.48;;;4.20;99.90;;;;;;477619;249;27401;-75
2023/04/07 03:47:37;;;;;;;10.10;7.82;;;4.30;99.90;;;;;;477673;249;27432;-75
2023/04/07 03:49:39;;;;;;;8.32;7.45;;;4.40;99.90;;;;;;477644;249;27515;-75
2023/04/07 03:51:40;;;;;;;7.45;6.65;;;4.50;99.90;;;;;;477677;249;27870;-74
2023/04/07 03:53:41;;;;;;;8.20;7.22;;;4.50;99.90;;;;;;477681;249;27927;-74
2023/04/07 03:55:43;;;;;;;7.53;6.70;;;4.60;99.90;;;;;;477607;249;27476;-75
2023/04/07 03:57:44;;;;;;;6.72;5.97;;;4.60;99.90;;;;;;477651;249;27507;-75
2023/04/07 03:59:46;;;;;;;8.85;6.75;;;4.60;99.90;;;;;;477654;249;27386;-75
2023/04/07 04:01:46;;;;;;;9.95;7.15;;;4.70;99.90;;;;;;477598;249;27510;-75
2023/04/07 04:03:47;;;;;;;9.30;6.85;;;4.70;99.90;;;;;;477673;249;27531;-75
2023/04/07 04:05:49;;;;;;;8.30;7.10;;;4.80;99.90;;;;;;477601;249;28009;-75
2023/04/07 04:07:51;;;;;;;11.20;7.15;;;4.80;99.90;;;;;;477628;249;27947;-75
2023/04/07 04:09:51;;;;;;;12.73;7.70;;;4.80;99.90;;;;;;477565;249;27434;-75
2023/04/07 04:11:52;;;;;;;8.52;7.25;;;4.80;99.90;;;;;;477688;249;27397;-75
2023/04/07 04:13:54;;;;;;;9.63;7.50;;;4.80;99.90;;;;;;477660;249;27441;-75
2023/04/07 04:15:55;;;;;;;12.70;9.05;;;4.80;99.90;;;;;;477623;249;27386;-75
2023/04/07 04:17:56;;;;;;;9.85;7.37;;;4.80;99.90;;;;;;477636;249;27429;-75
2023/04/07 04:19:57;;;;;;;8.15;6.53;;;4.80;99.90;;;;;;477674;249;27994;-75
2023/04/07 04:21:59;;;;;;;9.02;7.30;;;4.80;99.90;;;;;;477660;249;28026;-75
2023/04/07 04:24:00;;;;;;;10.23;7.35;;;4.80;99.90;;;;;;477633;249;27434;-75
2023/04/07 04:26:02;;;;;;;9.30;7.72;;;4.90;99.90;;;;;;477582;249;27397;-75
2023/04/07 04:28:02;;;;;;;9.07;7.57;;;4.90;99.90;;;;;;477606;249;27434;-75
2023/04/07 04:30:04;;;;;;;8.82;7.37;;;4.90;99.90;;;;;;477697;249;27548;-75
2023/04/07 04:32:05;;;;;;;12.52;7.35;;;5.00;99.90;;;;;;477678;249;27488;-75
2023/04/07 04:34:06;;;;;;;9.93;6.60;;;4.90;99.90;;;;;;477669;249;28033;-75
2023/04/07 04:36:08;;;;;;;12.30;7.28;;;4.90;99.90;;;;;;477596;249;28040;-75
2023/04/07 04:38:09;;;;;;;12.37;8.15;;;4.80;99.90;;;;;;477682;249;27449;-75
2023/04/07 04:40:10;;;;;;;11.65;7.57;;;4.70;99.90;;;;;;477663;249;27533;-72
2023/04/07 04:42:11;;;;;;;10.88;7.18;;;4.60;99.90;;;;;;477612;249;27479;-74
2023/04/07 04:44:13;;;;;;;9.70;8.48;;;4.60;99.90;;;;;;477612;249;27437;-74
2023/04/07 04:46:14;;;;;;;12.88;9.02;;;4.50;99.90;;;;;;477632;249;27992;-74
2023/04/07 04:48:16;;;;;;;12.15;8.27;;;4.50;99.90;;;;;;477684;249;27869;-74
2023/04/07 04:50:16;;;;;;;13.23;9.63;;;4.50;99.90;;;;;;477682;249;27438;-74
2023/04/07 04:52:18;;;;;;;11.25;8.60;;;4.40;99.90;;;;;;477649;249;27504;-74
2023/04/07 04:54:19;;;;;;;11.90;8.52;;;4.40;99.90;;;;;;477612;249;27514;-75
2023/04/07 04:56:20;;;;;;;9.85;8.27;;;4.30;99.90;;;;;;477692;249;27418;-74
2023/04/07 04:58:21;;;;;;;8.90;7.10;;;4.30;99.90;;;;;;477687;249;27496;-74
2023/04/07 05:00:23;;;;;;;10.98;7.68;;;4.30;99.90;;;;;;477691;249;28006;-75
2023/04/07 05:02:24;;;;;;;9.50;7.35;;;4.30;99.90;;;;;;477697;249;27845;-74
2023/04/07 05:04:27;;;;;;;11.05;7.47;;;4.30;99.90;;;;;;477573;249;27513;-75
2023/04/07 05:06:26;;;;;;;10.95;7.22;;;4.20;99.90;;;;;;477577;249;27505;-74
2023/04/07 05:08:28;;;;;;;10.15;7.40;;;4.30;99.90;;;;;;477673;249;27393;-74
2023/04/07 05:10:29;;;;;;;10.05;7.00;;;4.30;99.90;;;;;;477645;249;27514;-74
2023/04/07 05:12:30;;;;;;;9.13;7.15;;;4.30;99.90;;;;;;477629;249;27497;-74
2023/04/07 05:14:31;;;;;;;7.93;6.72;;;4.30;99.90;;;;;;477553;249;27473;-74
2023/04/07 05:16:33;;;;;;;10.20;7.43;;;4.30;99.90;;;;;;477662;249;28013;-74
2023/04/07 05:18:34;;;;;;;9.55;7.07;;;4.20;99.90;;;;;;477665;249;27937;-74
2023/04/07 05:20:35;;;;;;;9.38;7.32;;;4.20;99.90;;;;;;477634;249;27516;-74
2023/04/07 05:22:36;;;;;;;11.52;7.50;;;4.20;99.90;;;;;;477662;249;27394;-75
2023/04/07 05:24:38;;;;;;;13.57;7.12;;;4.20;99.90;;;;;;477569;249;27466;-74
2023/04/07 05:26:39;;;;;;;9.73;7.20;;;4.20;99.90;;;;;;477673;249;27557;-74
2023/04/07 05:28:40;;;;;;;8.85;6.78;;;4.20;99.90;;;;;;477675;249;27409;-74
2023/04/07 05:30:41;;;;;;;8.45;6.62;;;4.20;99.90;;;;;;477671;249;27461;-74
2023/04/07 05:32:43;;;;;;;9.18;7.00;;;4.20;99.90;;;;;;477635;249;27862;-74
2023/04/07 05:34:44;;;;;;;7.55;6.53;;;4.20;99.90;;;;;;477557;249;28011;-74
2023/04/07 05:36:45;;;;;;;8.50;6.93;;;4.20;99.90;;;;;;477645;249;28022;-74
2023/04/07 05:38:46;;;;;;;12.75;8.00;;;4.30;99.90;;;;;;477659;249;27394;-74
2023/04/07 05:40:48;;;;;;;11.00;7.90;;;4.30;99.90;;;;;;477655;249;27496;-75
2023/04/07 05:42:49;;;;;;;8.68;7.20;;;4.30;99.90;;;;;;477641;249;27434;-74
2023/04/07 05:44:50;;;;;;;8.95;7.65;;;4.30;99.90;;;;;;477551;249;27438;-74
2023/04/07 05:46:52;;;;;;;12.35;7.80;;;4.40;99.90;;;;;;477661;249;27529;-74
2023/04/07 05:48:53;;;;;;;8.85;6.72;;;4.40;99.90;;;;;;477674;249;27480;-74
2023/04/07 05:50:54;;;;;;;9.02;6.03;;;4.50;99.90;;;;;;477617;249;27910;-74
2023/04/07 05:52:55;;;;;;;8.15;6.60;;;4.60;99.90;;;;;;477609;249;27966;-74
2023/04/07 05:54:57;;;;;;;6.75;6.00;;;4.70;99.90;;;;;;477577;249;27465;-74
2023/04/07 05:56:58;;;;;;;9.43;7.00;;;4.80;99.90;;;;;;477637;249;27395;-74
2023/04/07 05:59:00;;;;;;;12.63;6.72;;;4.90;99.90;;;;;;477665;249;27505;-74
2023/04/07 06:01:00;;;;;;;11.50;7.40;;;5.00;99.90;;;;;;477594;249;27548;-74
2023/04/07 06:03:02;;;;;;;12.30;6.37;;;5.00;99.90;;;;;;477647;249;27497;-75
2023/04/07 06:05:03;;;;;;;9.25;5.50;;;5.10;99.90;;;;;;477573;249;27939;-74
2023/04/07 06:07:04;;;;;;;10.38;8.48;;;5.30;99.90;;;;;;477675;249;27397;-74
2023/04/07 06:09:05;;;;;;;9.13;7.10;;;5.40;99.90;;;;;;477684;249;27402;-74
2023/04/07 06:11:07;;;;;;;8.07;6.45;;;5.50;99.90;;;;;;477703;249;27544;-75
2023/04/07 06:13:08;;;;;;;7.55;6.18;;;5.60;99.90;;;;;;477686;249;27398;-75
2023/04/07 06:15:09;;;;;;;6.57;5.80;;;5.70;99.90;;;;;;477647;249;27453;-74
2023/04/07 06:17:10;;;;;;;9.03;7.10;;;5.80;99.90;;;;;;477705;249;27954;-74
2023/04/07 06:19:12;;;;;;;9.00;6.00;;;5.60;99.90;;;;;;477728;249;28403;-74
2023/04/07 06:21:13;;;;;;;10.10;7.30;;;5.90;99.90;;;;;;477753;249;27524;-75
2023/04/07 06:23:14;;;;;;;9.07;6.10;;;5.90;99.90;;;;;;477722;249;28738;-74
2023/04/07 06:25:15;;;;;;;9.80;6.67;;;6.00;99.90;;;;;;477644;249;28004;-75
2023/04/07 06:27:17;;;;;;;11.13;6.57;;;6.10;99.90;;;;;;477709;249;27860;-74
2023/04/07 06:29:18;;;;;;;8.93;6.03;;;6.10;99.90;;;;;;477700;249;28006;-75
2023/04/07 06:31:19;;;;;;;9.53;6.20;;;6.30;99.90;;;;;;477737;249;28194;-75
2023/04/07 06:33:24;;;;;;;9.10;7.00;;;6.30;99.90;;;;;;477695;249;27623;-75
2023/04/07 06:35:22;;;;;;;7.93;6.37;;;6.40;99.90;;;;;;477357;249;28660;-75
2023/04/07 06:37:24;;;;;;;9.93;6.40;;;6.40;99.90;;;;;;477665;249;27867;-75
2023/04/07 06:39:25;;;;;;;8.07;6.23;;;6.40;99.90;;;;;;477635;249;27685;-75
2023/04/07 06:41:25;;;;;;;7.60;6.13;;;6.50;99.90;;;;;;477683;249;28065;-75
2023/04/07 06:43:27;;;;;;;8.23;6.87;;;6.60;99.90;;;;;;477697;249;28090;-75
2023/04/07 06:45:28;;;;;;;6.87;5.43;;;6.60;99.90;;;;;;477646;249;28052;-74
2023/04/07 06:47:29;;;;;;;8.87;6.60;;;6.60;99.90;;;;;;477681;249;28222;-75
2023/04/07 06:49:30;;;;;;;11.53;7.47;;;6.50;99.90;;;;;;477697;249;28218;-74
2023/04/07 06:51:32;;;;;;;11.33;6.70;;;6.50;99.90;;;;;;477724;249;28389;-75
2023/04/07 06:53:33;;;;;;;11.80;7.37;;;6.50;99.90;;;;;;477721;249;27617;-75
2023/04/07 06:55:34;;;;;;;8.77;7.30;;;6.60;99.90;;;;;;477636;249;27967;-75
2023/04/07 06:57:35;;;;;;;13.30;8.00;;;6.70;99.90;;;;;;477691;249;27827;-75
2023/04/07 06:59:37;;;;;;;11.33;8.03;;;6.70;99.90;;;;;;477736;249;28002;-75
2023/04/07 07:01:38;;;;;;;12.70;8.80;;;6.90;99.90;;;;;;477705;249;27528;-75
2023/04/07 07:03:39;;;;;;;10.17;8.00;;;7.00;99.90;;;;;;477677;249;27867;-75
2023/04/07 07:05:40;;;;;;;13.17;9.20;;;7.10;99.90;;;;;;477610;249;27768;-75
2023/04/07 07:07:42;;;;;;;15.57;10.80;;;7.10;99.90;;;;;;477674;249;27824;-75
2023/04/07 07:09:43;;;;;;;13.37;9.50;;;7.10;99.90;;;;;;477711;249;27760;-75
2023/04/07 07:11:44;;;;;;;14.00;9.87;;;7.10;99.90;;;;;;477695;247;28479;-75
2023/04/07 07:13:46;;;;;;;13.30;8.93;;;7.20;99.90;;;;;;477702;249;28152;-75
2023/04/07 07:15:47;;;;;;;17.53;10.80;;;7.30;99.90;;;;;;477590;249;28517;-75
2023/04/07 07:17:48;;;;;;;15.87;11.37;;;7.30;99.90;;;;;;477653;249;28026;-75
2023/04/07 07:19:49;;;;;;;20.30;11.00;;;7.50;99.90;;;;;;477726;249;27794;-75
2023/04/07 07:21:50;;;;;;;19.43;12.47;;;7.60;99.90;;;;;;477699;249;28103;-75
2023/04/07 07:23:52;;;;;;;18.97;13.13;;;7.50;99.90;;;;;;477611;249;27755;-76
2023/04/07 07:25:53;;;;;;;17.60;10.70;;;7.50;99.90;;;;;;477492;249;27465;-75
2023/04/07 07:27:54;;;;;;;17.00;10.63;;;7.60;99.90;;;;;;477608;249;27535;-75
2023/04/07 07:29:55;;;;;;;18.73;11.57;;;7.70;99.90;;;;;;477659;249;28016;-75
2023/04/07 07:31:57;;;;;;;22.90;13.60;;;7.80;99.90;;;;;;477689;249;28448;-75
2023/04/07 07:33:58;;;;;;;20.90;11.57;;;7.80;99.90;;;;;;477672;249;28345;-75
2023/04/07 07:35:59;;;;;;;18.07;10.50;;;6.90;99.90;;;;;;477599;249;27846;-75
2023/04/07 07:38:00;;;;;;;17.37;12.57;;;7.50;99.90;;;;;;477660;249;27978;-75
2023/04/07 07:40:02;;;;;;;19.13;11.80;;;7.50;99.90;;;;;;477702;249;27888;-75
2023/04/07 07:42:03;;;;;;;21.00;12.70;;;7.60;99.90;;;;;;477682;249;27901;-75
2023/04/07 07:44:04;;;;;;;19.60;12.77;;;7.00;99.90;;;;;;477676;249;27890;-75
2023/04/07 07:46:05;;;;;;;23.23;14.23;;;7.60;99.90;;;;;;477611;249;27579;-75
2023/04/07 07:48:07;;;;;;;18.93;11.27;;;7.60;99.90;;;;;;477677;249;28312;-75
2023/04/07 07:50:08;;;;;;;19.77;12.57;;;7.60;99.90;;;;;;477682;249;28446;-75
2023/04/07 07:52:10;;;;;;;19.57;11.30;;;7.50;99.90;;;;;;477682;249;28305;-75
2023/04/07 07:54:10;;;;;;;18.77;11.60;;;7.60;99.90;;;;;;477642;249;27875;-75
2023/04/07 07:56:12;;;;;;;19.00;12.43;;;7.60;99.90;;;;;;477607;249;27860;-75
2023/04/07 07:58:13;;;;;;;19.20;12.13;;;7.70;99.90;;;;;;477706;249;27897;-75
2023/04/07 08:00:14;;;;;;;18.70;12.27;;;7.70;99.90;;;;;;477702;249;27990;-75
2023/04/07 08:02:16;;;;;;;16.53;11.23;;;7.80;99.90;;;;;;477663;249;27764;-75
2023/04/07 08:04:17;;;;;;;14.33;10.77;;;7.80;99.90;;;;;;477623;249;27944;-75
2023/04/07 08:06:18;;;;;;;15.27;10.90;;;7.80;99.90;;;;;;477581;249;28192;-75
2023/04/07 08:08:19;;;;;;;23.50;12.50;;;7.90;99.90;;;;;;477677;249;28363;-75
2023/04/07 08:10:22;;;;;;;18.43;11.33;;;7.80;99.90;;;;;;477685;249;27583;-76
2023/04/07 08:12:22;;;;;;;17.73;11.23;;;7.80;99.90;;;;;;477598;249;28077;-75
2023/04/07 08:14:23;;;;;;;16.87;10.53;;;7.80;99.90;;;;;;477583;249;27728;-75
2023/04/07 08:16:25;;;;;;;14.50;10.30;;;7.90;99.90;;;;;;477624;249;28010;-75
2023/04/07 08:18:26;;;;;;;16.37;11.23;;;7.90;99.90;;;;;;477649;249;28407;-75
2023/04/07 08:20:27;;;;;;;19.53;12.10;;;8.00;99.90;;;;;;477663;249;28184;-75
2023/04/07 08:22:28;;;;;;;14.73;10.50;;;8.10;99.90;;;;;;477640;249;28265;-75
2023/04/07 08:24:29;;;;;;;16.20;10.80;;;8.20;99.90;;;;;;477550;249;27600;-75
2023/04/07 08:26:31;;;;;;;19.13;10.40;;;8.30;99.90;;;;;;477664;249;27862;-75
2023/04/07 08:28:32;;;;;;;18.10;11.03;;;8.40;99.90;;;;;;477674;249;27906;-75
2023/04/07 08:30:33;;;;;;;17.17;10.90;;;8.40;99.90;;;;;;477657;249;27963;-75
2023/04/07 08:32:35;;;;;;;15.50;9.50;;;8.40;99.90;;;;;;477629;249;27716;-75
2023/04/07 08:34:36;;;;;;;13.30;9.43;;;8.60;99.90;;;;;;477624;249;27694;-75
2023/04/07 08:36:37;;;;;;;16.30;11.00;;;8.50;99.90;;;;;;477701;249;27896;-75
2023/04/07 08:38:38;;;;;;;22.20;11.13;;;8.60;99.90;;;;;;477670;249;28300;-76
2023/04/07 08:40:39;;;;;;;12.03;9.63;;;8.70;99.90;;;;;;477631;249;28394;-75
2023/04/07 08:42:41;;;;;;;15.70;10.60;;;8.80;99.90;;;;;;477638;249;27442;-75
2023/04/07 08:44:42;;;;;;;13.77;10.63;;;8.90;99.90;;;;;;477594;249;27911;-75
2023/04/07 08:46:43;;;;;;;15.30;10.80;;;8.90;99.90;;;;;;477666;249;27948;-75
2023/04/07 08:48:44;;;;;;;13.33;9.63;;;8.90;99.90;;;;;;477677;249;27772;-75
2023/04/07 08:50:46;;;;;;;12.60;9.30;;;9.00;99.90;;;;;;477650;249;27949;-75
2023/04/07 08:52:47;;;;;;;13.67;9.77;;;9.10;99.90;;;;;;477643;249;27805;-75
2023/04/07 08:54:48;;;;;;;11.90;8.40;;;9.20;99.90;;;;;;477605;249;28003;-76
2023/04/07 08:56:49;;;;;;;12.33;9.40;;;9.10;99.90;;;;;;477662;249;28131;-76
2023/04/07 08:58:51;;;;;;;13.03;8.53;;;9.10;99.90;;;;;;477666;249;28390;-76
2023/04/07 09:00:52;;;;;;;11.90;9.17;;;9.10;99.90;;;;;;477672;249;28236;-76
2023/04/07 09:02:53;;;;;;;14.07;9.10;;;9.10;99.90;;;;;;477689;249;28499;-76
2023/04/07 09:04:55;;;;;;;15.40;8.57;;;9.00;99.90;;;;;;477690;249;28559;-75
2023/04/07 09:06:56;;;;;;;13.70;9.07;;;8.90;99.90;;;;;;477645;249;27969;-75
2023/04/07 09:08:57;;;;;;;11.37;9.00;;;8.90;99.90;;;;;;477683;249;27924;-76
2023/04/07 09:10:58;;;;;;;13.80;9.13;;;8.90;99.90;;;;;;477671;249;27879;-75
2023/04/07 09:12:59;;;;;;;12.63;9.10;;;8.90;99.90;;;;;;477636;249;27827;-76
2023/04/07 09:15:01;;;;;;;12.20;9.33;;;8.90;99.90;;;;;;477627;249;28303;-75
2023/04/07 09:17:02;;;;;;;11.40;8.87;;;8.80;99.90;;;;;;477692;249;28032;-75
2023/04/07 09:19:03;;;;;;;11.77;9.47;;;8.90;99.90;;;;;;477724;249;27948;-76
2023/04/07 09:21:06;;;;;;;11.40;8.80;;;8.90;99.90;;;;;;477637;249;27841;-75
2023/04/07 09:23:06;;;;;;;11.70;9.10;;;8.90;99.90;;;;;;477583;249;28319;-75
2023/04/07 09:25:07;;;;;;;14.00;9.80;;;8.90;99.90;;;;;;477610;249;28491;-75
2023/04/07 09:27:17;;;;;;;15.70;9.30;;;;;;;;;;477647;249;28403;-75
2023/04/07 09:29:28;;;;;;;12.73;8.10;;;;;;;;;;477688;249;26862;-75
2023/04/07 09:31:38;;;;;;;10.87;8.17;;;;;;;;;;477648;249;26767;-75
2023/04/07 09:33:49;;;;;;;10.27;8.20;;;;;;;;;;477666;249;27313;-75
2023/04/07 09:35:59;;;;;;;9.87;8.00;;;;;;;;;;477615;249;26806;-75
2023/04/07 09:38:09;;;;;;;10.70;8.03;;;;;;;;;;477655;249;26909;-75
2023/04/07 09:40:19;;;;;;;11.13;7.60;;;;;;;;;;477671;249;26873;-75
2023/04/07 09:42:34;;;;;;;10.43;7.90;;;;;;;;;;477677;249;26688;-76
2023/04/07 09:44:42;;;;;;;8.00;6.67;;;;;;;;;;477411;249;26803;-75
2023/04/07 09:46:53;;;;;;;8.20;6.67;;;;;;;;;;477660;249;26866;-75
2023/04/07 09:49:05;;;;;;;9.57;6.53;;;;;;;;;;477646;249;26914;-75
2023/04/07 09:51:13;;;;;;;12.20;7.13;;;;;;;;;;477477;249;26846;-76
2023/04/07 09:53:20;;;;;;;12.10;8.33;;;;;;;;;;477706;249;27120;-75
2023/04/07 09:55:21;;;;;;;10.03;6.57;;;8.90;99.90;;;;;;477601;249;27282;-75
2023/04/07 09:57:22;;;;;;;9.63;7.17;;;8.70;99.90;;;;;;477631;249;28364;-75
2023/04/07 09:59:23;;;;;;;10.73;7.30;;;8.70;99.90;;;;;;477646;249;27473;-75
2023/04/07 10:01:25;;;;;;;10.23;8.13;;;8.70;99.90;;;;;;477669;249;28342;-76
2023/04/07 10:03:26;;;;;;;9.77;7.67;;;8.60;99.90;;;;;;477700;249;28535;-76
2023/04/07 10:05:27;;;;;;;8.73;6.23;;;8.50;99.90;;;;;;477661;249;28419;-75
2023/04/07 10:07:29;;;;;;;9.87;6.80;;;8.50;99.90;;;;;;477688;249;27905;-75
2023/04/07 10:09:30;;;;;;;9.60;6.77;;;8.60;99.90;;;;;;477694;249;27712;-75
2023/04/07 10:11:32;;;;;;;9.20;6.57;;;8.70;99.90;;;;;;477670;249;27896;-75
2023/04/07 10:13:32;;;;;;;7.53;6.37;;;8.80;99.90;;;;;;477656;249;27562;-76
2023/04/07 10:15:33;;;;;;;5.40;4.83;;;9.00;99.90;;;;;;477626;249;27760;-75
2023/04/07 10:17:35;;;;;;;7.13;4.80;;;9.10;99.90;;;;;;477631;249;27826;-75
2023/04/07 10:19:36;;;;;;;4.57;4.00;;;9.30;99.90;;;;;;477628;249;27889;-75
2023/04/07 10:21:37;;;;;;;4.90;4.40;;;9.40;99.90;;;;;;477627;249;28025;-75
2023/04/07 10:23:38;;;;;;;4.20;3.80;;;9.60;99.90;;;;;;477690;249;27979;-75
2023/04/07 10:25:40;;;;;;;6.07;4.67;;;9.70;99.90;;;;;;477648;249;28005;-75
2023/04/07 10:27:41;;;;;;;4.67;4.17;;;9.90;99.90;;;;;;477649;249;27922;-76
2023/04/07 10:29:42;;;;;;;5.37;4.47;;;10.00;99.90;;;;;;477637;249;27858;-76
2023/04/07 10:31:43;;;;;;;6.80;4.60;;;10.00;99.90;;;;;;477637;249;28151;-75
2023/04/07 10:33:45;;;;;;;4.93;4.53;;;9.90;99.90;;;;;;477667;249;28645;-75
2023/04/07 10:35:46;;;;;;;5.90;4.50;;;9.90;99.90;;;;;;477613;249;28557;-75
2023/04/07 10:37:47;;;;;;;5.50;4.50;;;9.80;99.90;;;;;;477668;249;28565;-75
2023/04/07 10:39:49;;;;;;;5.23;4.73;;;9.70;99.90;;;;;;477646;249;28472;-75